Saint Stephens, Wyoming
Current Conditions -  °F | °C
As of 10:53 AM on Friday 31 Oct 2014 (Local Time) from KRIW Reporting Station
Clear Clear  
Wind Chill: 46°   Ceiling: Unl
Heat Index: 46°   Visibility: 10mi
Dew Point: 24°   Wind: 3mph
Humidity: 42%   Direction: NA
Pressure: 30.11"   Gusts: NA
Location:  42.98°N, 108.42°W
Report Text: KRIW 311653Z AUTO VRB03KT 10SM CLR 08/M04 A3011 RMK AO2 SLP189 T00781044
Loading
Personal Weather Stations






























Interactive Weather Map
Tropical Storm Tracking
New forecast layout! Learn more

10-Day Weather Forecast

Advertisements
Track Severe Weather on mobile